Impacts TAF Board
For situational awareness. Not to be used for flight planning purposes.
IDs:

KBWI - Baltimore-Washington, MD, US

Issued at 2053 UTC 02 Oct 2022
Updated at 2144 UTC 02 Oct 2022
Potential Impact None Slight Moderate High
Time<<03/10Z 03/11Z 03/12Z 03/13Z 03/14Z 03/15Z 03/16Z 03/17Z 03/18Z 03/19Z 03/20Z 03/21Z 03/22Z>>
Type PRVL PRVL PRVL PRVL PRVL PRVL PRVL PRVL PRVL PRVL PRVL PRVL PRVL
VIS >6 >6 >6 >6 >6 >6 >6 >6 >6 >6 >6 >6 >6
CIG 40 40 40 40 40 60 60 60 60 60 60 60 70
Cover OVC OVC OVC OVC OVC BKN BKN BKN BKN BKN BKN BKN OVC
FltCat VFR VFR VFR VFR VFR VFR VFR VFR VFR VFR VFR VFR VFR
WX -- -- -- -- -- -- -- -- -- -- -- -- --
WDir 30 30 30 30 30 20 20 20 20 20 20 20 20
WSpd 11 11 11 11 11 12 12 12 12 12 12 12 9
WGst 26 26 26 26 26 26 26 26 26 26 26 26 --
WSHgt -- -- -- -- -- -- -- -- -- -- -- -- --
WSDir -- -- -- -- -- -- -- -- -- -- -- -- --
WSSpd -- -- -- -- -- -- -- -- -- -- -- -- --
Raw TAF
KBWI 022053Z 0221/0324 03010G25KT 3SM -SHRA BR OVC010
  TEMPO 0221/0223 1 1/2SM SHRA OVC008
  FM022300 03013G27KT 3SM SHRA BR OVC010
  FM030300 02011G25KT 5SM -SHRA BR OVC020
  FM030500 03011G26KT P6SM VCSH OVC025
  FM030600 03011G26KT P6SM OVC040
  FM031500 02012G26KT P6SM BKN060
  FM032200 02009KT P6SM OVC070


METAR Board
Radar Display
Forecast Discussion
For situational awareness. Not to be used for flight planning purposes.